Terminal Aerodrome Forecast
Issued by NWS Sterling, VA

Home | Current Version | Previous Version | Text Only | Print | Product List | Glossary On
Versions: 1 2 3 4 5 6 7 8 9 10 11 12 13 14 15 16 17 18 19 20 21 22 23 24
399
FTUS41 KLWX 231500 AAA
TAFDCA
TAF AMD
KDCA 231500Z 2315/2412 02006KT P6SM BKN050 OVC150
     FM231700 07006KT P6SM -SHRA BKN021 OVC050
     FM232000 05007KT 5SM -RA OVC015
     FM232300 05007KT 5SM -RA OVC008
     FM240500 01008KT P6SM OVC008
     FM241100 02004KT P6SM BKN010=

USA.gov is the U.S. government's official web portal to all federal, state and local government web resources and services.